12 Max
10 km/h
6 Mini

LFMY 191900Z AUTO 18004KT 150V220 CAVOK 27/17 Q1013

TAF LFMY 191459Z 1915/2015 CNL